Time;durP1;ratioP1;P1;durP2;ratioP2;P2;SDS_P1;SDS_P2;PMS_P1;PMS_P2;Temp;Humidity;BMP_temperature;BMP_pressure;BME280_temperature;BME280_humidity;BME280_pressure;Samples;Min_cycle;Max_cycle;Signal;HPM_P1;HPM_P2
2024/02/17 00:00:11;;;;;;;3.83;2.53;;;;;;;9.52;100.00;96787.59;1041044;28;20063;-68
2024/02/17 00:00:43;;;;;;;3.47;2.63;;;;;;;9.52;100.00;96798.06;1041663;28;20597;-67
2024/02/17 00:01:13;;;;;;;2.72;1.17;;;;;;;9.52;100.00;96795.44;1043106;28;20045;-68
2024/02/17 00:01:44;;;;;;;4.20;2.50;;;;;;;9.51;100.00;96793.84;1043088;28;20531;-67
2024/02/17 00:02:14;;;;;;;7.05;2.38;;;;;;;9.53;100.00;96788.41;1039019;28;20021;-68
2024/02/17 00:02:45;;;;;;;3.20;2.35;;;;;;;9.50;100.00;96789.66;1038794;28;20017;-68
2024/02/17 00:03:22;;;;;;;1.90;1.48;;;;;;;9.50;100.00;96797.50;1039255;28;20510;-68
2024/02/17 00:03:52;;;;;;;2.35;1.90;;;;;;;9.53;100.00;96794.44;1031910;28;20054;-68
2024/02/17 00:04:23;;;;;;;2.92;1.80;;;;;;;9.51;100.00;96791.25;1035051;28;20601;-68
2024/02/17 00:04:53;;;;;;;2.72;2.20;;;;;;;9.52;100.00;96798.06;1034989;28;20025;-68
2024/02/17 00:05:24;;;;;;;3.92;2.20;;;;;;;9.52;100.00;96800.69;1034458;28;20057;-67
2024/02/17 00:05:54;;;;;;;3.83;2.88;;;;;;;9.50;100.00;96791.47;1039032;28;20021;-68
2024/02/17 00:06:25;;;;;;;3.60;3.00;;;;;;;9.51;100.00;96796.47;1034660;28;20038;-68
2024/02/17 00:06:55;;;;;;;2.42;1.92;;;;;;;9.52;100.00;96797.28;1031314;28;20081;-68
2024/02/17 00:07:26;;;;;;;2.33;1.40;;;;;;;9.51;100.00;96796.47;1030673;28;20041;-68
2024/02/17 00:07:56;;;;;;;1.65;1.40;;;;;;;9.53;100.00;96798.88;1030969;28;20030;-68
2024/02/17 00:08:26;;;;;;;3.50;2.95;;;;;;;9.50;100.00;96792.28;1034857;28;20045;-68
2024/02/17 00:08:57;;;;;;;3.20;2.20;;;;;;;9.50;100.00;96800.13;1036111;28;20036;-68
2024/02/17 00:09:27;;;;;;;1.83;1.73;;;;;;;9.50;100.00;96800.13;1038644;28;20044;-67
2024/02/17 00:09:58;;;;;;;2.28;1.60;;;;;;;9.52;100.00;96797.28;1034154;28;20224;-67
2024/02/17 00:10:28;;;;;;;2.08;1.30;;;;;;;9.52;100.00;96798.06;1035185;28;20564;-67
2024/02/17 00:10:59;;;;;;;3.03;2.13;;;;;;;9.51;100.00;96790.44;1039061;28;20513;-67
2024/02/17 00:11:29;;;;;;;1.80;1.70;;;;;;;9.51;100.00;96799.09;1035110;28;20038;-67
2024/02/17 00:12:00;;;;;;;1.80;1.42;;;;;;;9.50;100.00;96800.13;1039230;28;20033;-67
2024/02/17 00:12:34;;;;;;;4.55;2.28;;;;;;;9.49;100.00;96797.72;1041170;28;20575;-67
2024/02/17 00:13:05;;;;;;;2.65;1.35;;;;;;;9.50;100.00;96799.34;1034467;28;20032;-67
2024/02/17 00:13:35;;;;;;;2.67;1.92;;;;;;;9.50;100.00;96794.88;1034716;28;20516;-67
2024/02/17 00:14:06;;;;;;;2.10;1.73;;;;;;;9.52;100.00;96802.50;1030639;28;20022;-68
2024/02/17 00:14:37;;;;;;;5.97;2.65;;;;;;;9.51;100.00;96796.47;1030963;28;20469;-68
2024/02/17 00:15:07;;;;;;;3.88;2.38;;;;;;;9.53;100.00;96802.28;1030941;28;20082;-65
2024/02/17 00:15:39;;;;;;;1.70;1.33;;;;;;;9.51;100.00;96799.09;1036193;28;20021;-68
2024/02/17 00:16:09;;;;;;;1.75;1.65;;;;;;;9.52;100.00;96805.91;1042821;28;20082;-68
2024/02/17 00:16:41;;;;;;;3.80;1.65;;;;;;;9.50;100.00;96799.34;1039402;28;20026;-68
2024/02/17 00:17:11;;;;;;;1.90;1.40;;;;;;;9.50;100.00;96800.13;1043169;28;20524;-68
2024/02/17 00:17:42;;;;;;;2.00;1.80;;;;;;;9.50;100.00;96802.75;1043100;28;20013;-68
2024/02/17 00:18:12;;;;;;;2.75;1.80;;;;;;;9.50;100.00;96800.13;1042187;28;20110;-67
2024/02/17 00:18:43;;;;;;;2.70;2.05;;;;;;;9.52;100.00;96798.06;1043002;28;20413;-68
2024/02/17 00:19:13;;;;;;;1.50;1.08;;;;;;;9.51;100.00;96806.16;1036722;28;20460;-69
2024/02/17 00:19:46;;;;;;;1.88;1.67;;;;;;;9.50;100.00;96794.88;1034243;28;20026;-67
2024/02/17 00:20:17;;;;;;;1.90;1.42;;;;;;;9.50;100.00;96802.75;1031553;28;20026;-68
2024/02/17 00:20:48;;;;;;;1.48;1.38;;;;;;;9.47;100.00;96803.22;1039450;28;20045;-68
2024/02/17 00:21:18;;;;;;;3.25;2.00;;;;;;;9.47;100.00;96799.78;1039626;28;20025;-68
2024/02/17 00:21:49;;;;;;;3.50;1.95;;;;;;;9.49;100.00;96802.97;1034930;28;20018;-68
2024/02/17 00:22:19;;;;;;;1.20;0.95;;;;;;;9.48;100.00;96802.16;1035283;28;20460;-68
2024/02/17 00:22:50;;;;;;;2.10;1.40;;;;;;;9.48;100.00;96801.38;1031861;28;20418;-68
2024/02/17 00:23:20;;;;;;;5.45;1.90;;;;;;;9.48;100.00;96806.63;1035112;28;20034;-68
2024/02/17 00:23:51;;;;;;;14.38;1.60;;;;;;;9.49;100.00;96802.97;1043283;28;20103;-68
2024/02/17 00:24:21;;;;;;;3.03;2.70;;;;;;;9.46;100.00;96801.63;1042963;28;20236;-67
2024/02/17 00:24:52;;;;;;;2.17;1.63;;;;;;;9.48;100.00;96806.63;1039026;28;20489;-67
2024/02/17 00:25:22;;;;;;;4.40;2.40;;;;;;;9.47;100.00;96802.41;1030889;28;20022;-68
2024/02/17 00:25:53;;;;;;;3.42;2.72;;;;;;;9.45;100.00;96810.47;1030927;28;20604;-69
2024/02/17 00:26:23;;;;;;;4.22;2.83;;;;;;;9.45;100.00;96806.03;1031023;28;20039;-67
2024/02/17 00:26:54;;;;;;;1.67;1.55;;;;;;;9.37;100.00;96792.50;1039099;28;20025;-68
2024/02/17 00:27:24;;;;;;;2.60;1.80;;;;;;;9.43;100.00;96799.47;1043077;28;20041;-68
2024/02/17 00:27:55;;;;;;;1.75;1.65;;;;;;;9.43;100.00;96799.47;1043105;28;20024;-68
2024/02/17 00:28:26;;;;;;;1.98;1.75;;;;;;;9.45;100.00;96807.88;1034777;28;20101;-67
2024/02/17 00:28:59;;;;;;;2.70;2.25;;;;;;;9.45;100.00;96806.03;1031193;28;20057;-67
2024/02/17 00:29:30;;;;;;;1.13;1.02;;;;;;;9.47;100.00;96805.81;1030893;28;20041;-68
2024/02/17 00:30:01;;;;;;;5.20;1.70;;;;;;;9.49;100.00;96813.44;1031613;28;20022;-68
2024/02/17 00:30:31;;;;;;;2.00;1.60;;;;;;;9.49;100.00;96809.03;1035389;28;20034;-68
2024/02/17 00:31:02;;;;;;;1.92;1.77;;;;;;;9.46;100.00;96804.25;1035113;28;20445;-67
2024/02/17 00:31:32;;;;;;;1.58;1.48;;;;;;;9.47;100.00;96811.06;1038536;28;20300;-68
2024/02/17 00:32:03;;;;;;;1.27;1.17;;;;;;;9.45;100.00;96808.66;1034863;28;20034;-68
2024/02/17 00:32:34;;;;;;;2.78;1.85;;;;;;;9.45;100.00;96807.88;1036393;28;20513;-67
2024/02/17 00:33:05;;;;;;;1.35;1.25;;;;;;;9.45;100.00;96813.09;1043058;28;20032;-68
2024/02/17 00:33:37;;;;;;;2.80;2.10;;;;;;;9.45;100.00;96815.72;1039940;28;20026;-68
2024/02/17 00:34:07;;;;;;;4.70;2.38;;;;;;;9.44;100.00;96806.28;1031365;28;20117;-68
2024/02/17 00:34:38;;;;;;;2.30;1.98;;;;;;;9.43;100.00;96815.16;1037127;28;20029;-68
2024/02/17 00:35:10;;;;;;;5.85;3.30;;;;;;;9.40;100.00;96805.94;1039104;28;20033;-68
2024/02/17 00:35:41;;;;;;;2.08;1.80;;;;;;;9.45;100.00;96813.09;1031431;28;20061;-68
2024/02/17 00:36:11;;;;;;;4.50;2.97;;;;;;;9.41;100.00;96810.16;1038396;28;20033;-67
2024/02/17 00:36:42;;;;;;;3.55;2.30;;;;;;;9.43;100.00;96810.72;1039053;28;20029;-67
2024/02/17 00:37:12;;;;;;;1.70;1.60;;;;;;;9.41;100.00;96806.72;1035348;28;20024;-68
2024/02/17 00:37:43;;;;;;;3.78;2.97;;;;;;;9.41;100.00;96811.97;1043154;28;20112;-68
2024/02/17 00:38:13;;;;;;;4.43;2.97;;;;;;;9.41;100.00;96814.59;1043077;28;20296;-67
2024/02/17 00:38:44;;;;;;;1.85;1.58;;;;;;;9.40;100.00;96815.63;1043032;28;20082;-67
2024/02/17 00:39:14;;;;;;;1.75;1.65;;;;;;;9.39;100.00;96819.28;1043281;28;20025;-67
2024/02/17 00:39:45;;;;;;;11.07;1.83;;;;;;;9.41;100.00;96819.84;1042141;28;20017;-67
2024/02/17 00:40:16;;;;;;;2.25;1.23;;;;;;;9.40;100.00;96818.25;1043224;28;20028;-68
2024/02/17 00:40:46;;;;;;;3.20;2.10;;;;;;;9.41;100.00;96811.97;1043152;28;20021;-68
2024/02/17 00:41:16;;;;;;;2.55;2.05;;;;;;;9.41;100.00;96815.38;1043400;28;20025;-67
2024/02/17 00:41:47;;;;;;;1.77;1.63;;;;;;;9.43;100.00;96815.16;1043117;28;20025;-68
2024/02/17 00:42:17;;;;;;;2.63;1.92;;;;;;;9.42;100.00;96824.03;1043171;28;20102;-67
2024/02/17 00:42:48;;;;;;;2.67;2.08;;;;;;;9.40;100.00;96818.25;1043058;28;20024;-67
2024/02/17 00:43:18;;;;;;;1.83;1.50;;;;;;;9.41;100.00;96819.84;1043135;28;20025;-68
2024/02/17 00:43:49;;;;;;;1.63;1.48;;;;;;;9.42;100.00;96818.78;1043554;28;20036;-68
2024/02/17 00:44:19;;;;;;;1.95;1.77;;;;;;;9.41;100.00;96830.31;1043558;28;20021;-67
2024/02/17 00:44:50;;;;;;;2.70;1.60;;;;;;;9.41;100.00;96820.63;1042985;28;20025;-68
2024/02/17 00:45:20;;;;;;;2.35;2.15;;;;;;;9.39;100.00;96821.91;1043134;28;20032;-67
2024/02/17 00:45:51;;;;;;;3.17;1.60;;;;;;;9.27;100.00;96802.75;1043151;28;20029;-68
2024/02/17 00:46:21;;;;;;;5.55;2.67;;;;;;;9.40;100.00;96818.25;1043138;28;20374;-68
2024/02/17 00:46:52;;;;;;;2.55;1.98;;;;;;;9.38;100.00;96826.31;1043572;28;20032;-67
2024/02/17 00:47:22;;;;;;;4.45;2.35;;;;;;;9.41;100.00;96817.22;1038914;28;20743;-68
2024/02/17 00:47:53;;;;;;;3.90;2.63;;;;;;;9.42;100.00;96830.09;1039004;28;20026;-68
2024/02/17 00:48:25;;;;;;;2.90;1.77;;;;;;;9.37;100.00;96824.72;1036746;28;20037;-68
2024/02/17 00:48:55;;;;;;;3.88;2.80;;;;;;;9.41;100.00;96830.31;1035144;28;20026;-68
2024/02/17 00:49:25;;;;;;;3.13;2.78;;;;;;;9.42;100.00;96826.66;1038850;28;20033;-68
2024/02/17 00:49:56;;;;;;;2.45;1.92;;;;;;;9.42;100.00;96821.41;1038271;28;20040;-68
2024/02/17 00:50:26;;;;;;;5.20;2.72;;;;;;;9.43;100.00;96823.03;1034982;28;20034;-69
2024/02/17 00:50:57;;;;;;;1.92;1.80;;;;;;;9.43;100.00;96828.28;1038954;28;20559;-67
2024/02/17 00:51:27;;;;;;;1.80;1.67;;;;;;;9.41;100.00;96828.47;1034787;28;20462;-68
2024/02/17 00:51:58;;;;;;;4.63;1.45;;;;;;;9.38;100.00;96822.91;1038223;28;20041;-68
2024/02/17 00:52:28;;;;;;;2.42;2.13;;;;;;;9.37;100.00;96821.31;1043070;28;20340;-68
2024/02/17 00:52:59;;;;;;;2.00;1.48;;;;;;;9.36;100.00;96825.75;1038988;28;20215;-68
2024/02/17 00:53:29;;;;;;;9.40;3.97;;;;;;;9.35;100.00;96823.34;1034612;28;20469;-67
2024/02/17 00:54:00;;;;;;;2.30;1.85;;;;;;;9.34;100.00;96827.81;1035075;28;20037;-68
2024/02/17 00:54:30;;;;;;;2.92;2.58;;;;;;;9.34;100.00;96822.56;1026872;28;20517;-68
2024/02/17 00:55:00;;;;;;;1.58;1.08;;;;;;;9.35;100.00;96825.97;1027121;28;20023;-67
2024/02/17 00:55:31;;;;;;;1.52;1.42;;;;;;;9.34;100.00;96833.03;1030792;28;20073;-68
2024/02/17 00:56:01;;;;;;;1.77;1.67;;;;;;;9.34;100.00;96830.41;1030946;28;20514;-68
2024/02/17 00:56:32;;;;;;;2.63;2.03;;;;;;;9.35;100.00;96831.22;1034904;28;20663;-67
2024/02/17 00:57:02;;;;;;;4.10;2.25;;;;;;;9.36;100.00;96838.06;1037964;28;20025;-68
2024/02/17 00:57:33;;;;;;;3.88;3.17;;;;;;;9.35;100.00;96833.84;1043080;28;20509;-68
2024/02/17 00:58:03;;;;;;;1.83;1.02;;;;;;;9.33;100.00;96833.28;1039051;28;20346;-68
2024/02/17 00:58:34;;;;;;;1.38;1.27;;;;;;;9.35;100.00;96831.22;1033021;28;20026;-68
2024/02/17 00:59:05;;;;;;;2.40;2.17;;;;;;;9.34;100.00;96832.25;1030830;28;20033;-69
2024/02/17 00:59:35;;;;;;;1.42;1.33;;;;;;;9.34;100.00;96832.25;1030957;28;20493;-68
2024/02/17 01:00:07;;;;;;;2.25;2.05;;;;;;;9.33;100.00;96834.06;1034512;28;20081;-67
2024/02/17 01:00:38;;;;;;;2.47;2.28;;;;;;;9.32;100.00;96834.28;1035317;28;20026;-68
2024/02/17 01:01:10;;;;;;;1.55;1.45;;;;;;;9.34;100.00;96840.09;1038982;28;20037;-67
2024/02/17 01:01:41;;;;;;;1.60;1.50;;;;;;;9.33;100.00;96830.66;1034891;28;20049;-68
2024/02/17 01:02:11;;;;;;;3.88;1.88;;;;;;;9.36;100.00;96830.22;1038736;28;20475;-68
2024/02/17 01:02:42;;;;;;;3.13;2.35;;;;;;;9.36;100.00;96833.63;1038849;28;20014;-68
2024/02/17 01:03:12;;;;;;;2.45;2.20;;;;;;;9.35;100.00;96837.25;1039134;28;20469;-69
2024/02/17 01:03:43;;;;;;;2.05;1.88;;;;;;;9.33;100.00;96830.66;1034658;28;20087;-67
2024/02/17 01:04:13;;;;;;;3.08;1.83;;;;;;;9.35;100.00;96833.84;1035065;28;20032;-68
2024/02/17 01:04:43;;;;;;;1.73;1.63;;;;;;;9.36;100.00;96838.88;1043100;28;20029;-67
2024/02/17 01:05:14;;;;;;;0.98;0.70;;;;;;;9.37;100.00;96834.41;1042234;28;20029;-67
2024/02/17 01:05:44;;;;;;;5.53;2.05;;;;;;;9.38;100.00;96828.94;1039280;28;20033;-67
2024/02/17 01:06:15;;;;;;;1.63;1.52;;;;;;;9.37;100.00;96835.22;1039498;28;20041;-68
2024/02/17 01:06:45;;;;;;;3.38;2.75;;;;;;;9.36;100.00;96833.63;1039319;28;20025;-68
2024/02/17 01:07:16;;;;;;;1.85;1.73;;;;;;;9.37;100.00;96831.78;1039139;28;20021;-67
2024/02/17 01:07:46;;;;;;;2.20;1.83;;;;;;;9.36;100.00;96838.06;1039339;28;20032;-68
2024/02/17 01:08:17;;;;;;;1.25;1.13;;;;;;;9.37;100.00;96837.03;1038830;28;20021;-67
2024/02/17 01:08:47;;;;;;;2.90;1.95;;;;;;;9.31;100.00;96832.69;1026554;28;20023;-67
2024/02/17 01:09:18;;;;;;;2.00;1.60;;;;;;;9.34;100.00;96837.47;1022796;29;20055;-67
2024/02/17 01:09:48;;;;;;;1.83;1.73;;;;;;;9.32;100.00;96837.72;1022355;28;20495;-67
2024/02/17 01:10:19;;;;;;;2.38;2.17;;;;;;;9.34;100.00;96842.72;1023307;28;20042;-67
2024/02/17 01:10:50;;;;;;;6.28;1.77;;;;;;;9.33;100.00;96841.94;1030875;28;20062;-67
2024/02/17 01:11:21;;;;;;;17.77;1.92;;;;;;;9.34;100.00;96840.09;1034869;28;20034;-67
2024/02/17 01:11:51;;;;;;;3.92;1.98;;;;;;;9.32;100.00;96844.75;1034960;28;20496;-69
2024/02/17 01:12:24;;;;;;;4.32;1.77;;;;;;;9.33;100.00;96844.56;1037981;28;20021;-68
2024/02/17 01:12:54;;;;;;;1.77;1.45;;;;;;;9.32;100.00;96844.75;1039256;28;20013;-68
2024/02/17 01:13:25;;;;;;;1.48;1.38;;;;;;;9.33;100.00;96841.13;1039326;28;20045;-68
2024/02/17 01:13:55;;;;;;;1.65;1.50;;;;;;;9.30;100.00;96831.91;1039091;28;20052;-67
2024/02/17 01:14:26;;;;;;;2.60;1.92;;;;;;;9.34;100.00;96842.72;1038809;28;20036;-68
2024/02/17 01:14:56;;;;;;;2.72;1.25;;;;;;;9.33;100.00;96849.00;1030750;28;20495;-67
2024/02/17 01:15:27;;;;;;;7.85;2.00;;;;;;;9.31;100.00;96838.72;1031388;28;20030;-67
2024/02/17 01:15:58;;;;;;;1.58;1.38;;;;;;;9.32;100.00;96839.53;1026795;28;20062;-67
2024/02/17 01:16:28;;;;;;;2.67;2.42;;;;;;;9.32;100.00;96839.53;1023064;28;20036;-67
2024/02/17 01:16:59;;;;;;;4.10;2.25;;;;;;;9.34;100.00;96842.72;1030864;28;20423;-67
2024/02/17 01:17:29;;;;;;;0.80;0.80;;;;;;;9.35;100.00;96844.31;1034542;28;20037;-67
2024/02/17 01:18:00;;;;;;;2.05;1.63;;;;;;;9.34;100.00;96842.72;1043318;28;20524;-67
2024/02/17 01:18:30;;;;;;;3.17;2.30;;;;;;;9.31;100.00;96849.22;1047035;28;20024;-67
2024/02/17 01:19:01;;;;;;;1.90;1.73;;;;;;;9.31;100.00;96849.22;1044934;28;20039;-66
2024/02/17 01:19:31;;;;;;;2.45;2.22;;;;;;;9.30;100.00;96846.81;1039201;28;20331;-67
2024/02/17 01:20:03;;;;;;;1.58;1.48;;;;;;;9.30;100.00;96845.00;1038306;28;21008;-67
2024/02/17 01:20:33;;;;;;;2.28;2.10;;;;;;;9.31;100.00;96843.19;1034606;28;20034;-67
2024/02/17 01:21:04;;;;;;;3.38;2.20;;;;;;;9.30;100.00;96846.81;1030716;28;20026;-66
2024/02/17 01:21:34;;;;;;;1.58;1.48;;;;;;;9.29;100.00;96834.72;1030796;28;20025;-67
2024/02/17 01:22:05;;;;;;;3.35;2.42;;;;;;;9.28;100.00;96846.25;1034633;28;20103;-67
2024/02/17 01:22:35;;;;;;;1.38;1.27;;;;;;;9.19;100.00;96825.63;1038532;28;20034;-67
2024/02/17 01:23:06;;;;;;;0.68;0.68;;;;;;;9.31;100.00;96841.34;1038772;28;20025;-67
2024/02/17 01:23:36;;;;;;;4.88;2.05;;;;;;;9.33;100.00;96851.63;1038943;28;20033;-67
2024/02/17 01:24:09;;;;;;;3.50;2.88;;;;;;;9.32;100.00;96847.38;1038702;28;20025;-67
2024/02/17 01:24:41;;;;;;;2.47;1.70;;;;;;;9.33;100.00;96851.63;1035013;28;20034;-67
2024/02/17 01:25:12;;;;;;;2.35;1.75;;;;;;;9.31;100.00;96843.19;1034725;28;20026;-67
2024/02/17 01:25:42;;;;;;;8.02;2.58;;;;;;;9.25;100.00;96844.88;1035647;28;20026;-67
2024/02/17 01:26:13;;;;;;;8.23;2.08;;;;;;;9.30;100.00;96846.81;1034996;28;20029;-67
2024/02/17 01:26:44;;;;;;;5.70;2.38;;;;;;;9.31;100.00;96848.41;1034617;28;20025;-67
2024/02/17 01:27:14;;;;;;;1.95;1.52;;;;;;;9.31;100.00;96846.59;1038737;28;20040;-67
2024/02/17 01:27:45;;;;;;;2.63;2.15;;;;;;;9.31;100.00;96848.41;1038679;28;20034;-66
2024/02/17 01:28:15;;;;;;;4.32;2.00;;;;;;;9.29;100.00;96850.44;1043036;28;20041;-67
2024/02/17 01:28:45;;;;;;;1.90;1.42;;;;;;;9.30;100.00;96852.06;1042757;28;20562;-67
2024/02/17 01:29:18;;;;;;;1.02;0.95;;;;;;;9.28;100.00;96854.09;1038721;28;20026;-68
2024/02/17 01:29:49;;;;;;;4.00;2.53;;;;;;;9.24;100.00;96843.28;1034105;28;20040;-67
2024/02/17 01:30:19;;;;;;;3.05;1.77;;;;;;;9.28;100.00;96851.47;1034938;28;20037;-67
2024/02/17 01:30:50;;;;;;;1.73;1.50;;;;;;;9.28;100.00;96854.91;1034470;28;20657;-67
2024/02/17 01:31:20;;;;;;;6.43;2.08;;;;;;;9.27;100.00;96852.50;1034692;28;20103;-65
2024/02/17 01:31:51;;;;;;;2.03;1.83;;;;;;;9.26;100.00;96845.69;1030830;28;20030;-67
2024/02/17 01:32:22;;;;;;;1.85;1.75;;;;;;;9.27;100.00;96847.28;1038709;28;20032;-70
2024/02/17 01:32:52;;;;;;;6.85;2.08;;;;;;;9.26;100.00;96850.94;1042767;28;20032;-67
2024/02/17 01:33:23;;;;;;;1.20;1.17;;;;;;;9.28;100.00;96848.88;1038638;28;20034;-66
2024/02/17 01:33:53;;;;;;;1.13;1.02;;;;;;;9.28;100.00;96854.09;1034727;28;20036;-67
2024/02/17 01:34:24;;;;;;;2.65;1.25;;;;;;;9.29;100.00;96853.06;1037173;28;20033;-67
2024/02/17 01:34:54;;;;;;;3.83;2.75;;;;;;;9.29;100.00;96851.28;1034801;28;20437;-67
2024/02/17 01:35:25;;;;;;;2.45;1.70;;;;;;;9.27;100.00;96850.69;1034530;28;20587;-67
2024/02/17 01:35:55;;;;;;;1.48;1.20;;;;;;;9.27;100.00;96850.69;1034691;28;20507;-67
2024/02/17 01:36:26;;;;;;;6.22;3.47;;;;;;;9.27;100.00;96852.50;1034637;28;20088;-67
2024/02/17 01:36:56;;;;;;;1.90;1.80;;;;;;;9.28;100.00;96859.34;1034651;28;20517;-67
2024/02/17 01:37:27;;;;;;;1.42;1.33;;;;;;;9.28;100.00;96860.13;1038798;28;20030;-68
2024/02/17 01:37:57;;;;;;;1.15;0.93;;;;;;;9.29;100.00;96853.06;1038582;28;20029;-67
2024/02/17 01:38:27;;;;;;;2.55;1.77;;;;;;;9.29;100.00;96858.31;1039034;28;20053;-67
2024/02/17 01:38:58;;;;;;;1.63;1.52;;;;;;;9.26;100.00;96856.97;1040512;28;20443;-66
2024/02/17 01:39:29;;;;;;;1.15;1.15;;;;;;;9.26;100.00;96850.94;1041037;28;20026;-67
2024/02/17 01:40:00;;;;;;;2.30;2.10;;;;;;;9.25;100.00;96860.59;1043019;28;20075;-67
2024/02/17 01:40:30;;;;;;;1.52;1.38;;;;;;;9.24;100.00;96856.38;1038476;28;20784;-67
2024/02/17 01:41:01;;;;;;;1.80;1.65;;;;;;;9.27;100.00;96863.00;1038601;28;20135;-66
2024/02/17 01:41:31;;;;;;;3.58;2.38;;;;;;;9.26;100.00;96862.19;1038860;28;20026;-67
2024/02/17 01:42:02;;;;;;;6.10;2.10;;;;;;;9.26;100.00;96856.16;1038706;28;20029;-66
2024/02/17 01:42:32;;;;;;;3.50;2.65;;;;;;;9.21;100.00;96848.97;1036545;28;20029;-66
2024/02/17 01:43:05;;;;;;;3.08;2.30;;;;;;;9.23;100.00;96857.41;1030102;28;20465;-66
2024/02/17 01:43:36;;;;;;;1.70;1.38;;;;;;;9.26;100.00;96856.16;1025437;28;20031;-67
2024/02/17 01:44:07;;;;;;;2.03;1.83;;;;;;;9.25;100.00;96854.56;1026988;28;20126;-67
2024/02/17 01:44:38;;;;;;;2.58;2.25;;;;;;;9.25;100.00;96859.78;1029961;28;20093;-67
2024/02/17 01:45:10;;;;;;;18.13;4.53;;;;;;;9.26;100.00;96862.19;1038270;28;20071;-67
2024/02/17 01:45:41;;;;;;;3.78;2.55;;;;;;;9.24;100.00;96864.22;1042734;28;20032;-66
2024/02/17 01:46:12;;;;;;;7.45;2.55;;;;;;;9.26;100.00;96862.19;1039168;28;20531;-67
2024/02/17 01:46:42;;;;;;;4.13;2.47;;;;;;;9.26;100.00;96859.56;1034451;28;20030;-66
2024/02/17 01:47:13;;;;;;;6.72;4.20;;;;;;;9.26;100.00;96864.03;1026665;28;20034;-67
2024/02/17 01:47:44;;;;;;;3.60;2.80;;;;;;;9.21;100.00;96860.25;1022449;29;20058;-66
2024/02/17 01:48:15;;;;;;;7.03;1.90;;;;;;;9.26;100.00;96861.41;1022503;29;20607;-67
2024/02/17 01:48:45;;;;;;;2.75;1.75;;;;;;;9.28;100.00;96861.97;1030427;28;20088;-67
2024/02/17 01:49:16;;;;;;;2.22;1.80;;;;;;;9.24;100.00;96866.06;1030667;28;20034;-67
2024/02/17 01:49:46;;;;;;;3.78;2.05;;;;;;;9.23;100.00;96864.47;1029834;28;20333;-66
2024/02/17 01:50:17;;;;;;;1.80;1.65;;;;;;;9.25;100.00;96865.03;1026000;28;20105;-67
2024/02/17 01:50:48;;;;;;;2.42;2.20;;;;;;;9.23;100.00;96867.88;1034638;28;20093;-67
2024/02/17 01:51:18;;;;;;;4.10;2.63;;;;;;;9.24;100.00;96863.44;1026856;28;20454;-67
2024/02/17 01:51:49;;;;;;;4.50;2.67;;;;;;;9.28;100.00;96869.81;1026676;28;20022;-67
2024/02/17 01:52:19;;;;;;;4.18;3.53;;;;;;;9.27;100.00;96863.78;1026554;28;20030;-67
2024/02/17 01:52:50;;;;;;;3.80;1.65;;;;;;;9.24;100.00;96863.44;1026549;28;20034;-67
2024/02/17 01:53:20;;;;;;;7.78;3.08;;;;;;;9.23;100.00;96867.88;1030444;28;20030;-66
2024/02/17 01:53:51;;;;;;;4.97;2.20;;;;;;;9.25;100.00;96865.03;1026776;28;20514;-67
2024/02/17 01:54:21;;;;;;;5.80;2.65;;;;;;;9.24;100.00;96868.69;1034743;28;20029;-66
2024/02/17 01:54:52;;;;;;;4.85;2.13;;;;;;;9.24;100.00;96871.28;1038832;28;20029;-67
2024/02/17 01:55:22;;;;;;;7.68;3.50;;;;;;;9.20;100.00;96874.38;1034404;28;20026;-66
2024/02/17 01:55:53;;;;;;;3.08;1.92;;;;;;;9.24;100.00;96863.44;1026535;28;20097;-67
2024/02/17 01:56:23;;;;;;;3.25;2.13;;;;;;;9.16;100.00;96868.00;1022500;29;20031;-67
2024/02/17 01:56:54;;;;;;;3.88;1.50;;;;;;;9.20;100.00;96868.34;1024360;28;20027;-67
2024/02/17 01:57:24;;;;;;;2.72;1.70;;;;;;;9.17;100.00;96859.09;1026645;28;20398;-67
2024/02/17 01:57:55;;;;;;;1.55;1.45;;;;;;;9.17;100.00;96869.56;1030678;28;20426;-66
2024/02/17 01:58:25;;;;;;;5.57;1.38;;;;;;;9.19;100.00;96872.78;1021788;29;20020;-67
2024/02/17 01:58:56;;;;;;;4.65;2.63;;;;;;;9.19;100.00;96875.41;1018685;29;20031;-67
2024/02/17 01:59:26;;;;;;;2.40;1.88;;;;;;;9.17;100.00;96874.81;1018616;29;20024;-68
2024/02/17 01:59:57;;;;;;;3.28;1.60;;;;;;;9.19;100.00;96872.78;1018102;29;20054;-67
2024/02/17 02:00:28;;;;;;;4.95;1.70;;;;;;;9.21;100.00;96875.16;1029562;28;20023;-67
2024/02/17 02:00:59;;;;;;;1.38;0.75;;;;;;;9.21;100.00;96875.94;1034840;28;20398;-67
2024/02/17 02:01:29;;;;;;;2.10;1.95;;;;;;;9.21;100.00;96873.34;1034687;28;20050;-68
2024/02/17 02:02:00;;;;;;;3.65;2.75;;;;;;;9.22;100.00;96876.75;1032546;28;20026;-67
2024/02/17 02:02:30;;;;;;;4.10;2.08;;;;;;;9.18;100.00;96868.53;1022393;28;20024;-67
2024/02/17 02:03:01;;;;;;;5.63;2.08;;;;;;;9.19;100.00;96870.16;1022319;29;20525;-66
2024/02/17 02:03:31;;;;;;;2.22;2.08;;;;;;;9.21;100.00;96875.16;1021333;28;20027;-67
2024/02/17 02:04:01;;;;;;;3.05;2.38;;;;;;;9.24;100.00;96873.91;1026457;28;20039;-66
2024/02/17 02:04:32;;;;;;;0.70;0.70;;;;;;;9.24;100.00;96873.91;1030644;28;20034;-67
2024/02/17 02:05:03;;;;;;;1.35;1.25;;;;;;;9.22;100.00;96881.97;1034767;28;20022;-67
2024/02/17 02:05:34;;;;;;;6.75;3.30;;;;;;;9.23;100.00;96877.56;1039293;28;20120;-67
2024/02/17 02:06:04;;;;;;;2.53;1.50;;;;;;;9.24;100.00;96876.53;1038591;28;20040;-67
2024/02/17 02:06:39;;;;;;;1.88;1.77;;;;;;;9.24;100.00;96874.72;1038517;28;20088;-67
2024/02/17 02:07:10;;;;;;;1.92;1.58;;;;;;;9.23;100.00;96880.97;1034526;28;20013;-67
2024/02/17 02:07:41;;;;;;;1.40;1.30;;;;;;;9.23;100.00;96873.13;1034635;28;20297;-67
2024/02/17 02:08:12;;;;;;;1.73;1.33;;;;;;;9.23;100.00;96878.38;1034572;28;20026;-66
2024/02/17 02:08:43;;;;;;;1.88;1.63;;;;;;;9.18;100.00;96871.16;1032164;28;20026;-66
2024/02/17 02:09:14;;;;;;;2.92;2.15;;;;;;;9.20;100.00;96879.59;1034610;28;20033;-67
2024/02/17 02:09:44;;;;;;;9.82;2.58;;;;;;;9.21;100.00;96881.19;1029930;28;20026;-66
2024/02/17 02:10:15;;;;;;;0.90;0.90;;;;;;;9.25;100.00;96878.13;1022965;28;20081;-67
2024/02/17 02:10:45;;;;;;;1.13;1.08;;;;;;;9.21;100.00;96875.94;1026531;28;20058;-67
2024/02/17 02:11:17;;;;;;;1.65;1.55;;;;;;;9.19;100.00;96878.00;1030888;28;20026;-67
2024/02/17 02:11:48;;;;;;;1.08;1.08;;;;;;;9.23;100.00;96880.19;1034949;28;20036;-67
2024/02/17 02:12:20;;;;;;;1.02;0.77;;;;;;;9.20;100.00;96876.19;1034540;28;20026;-67
2024/02/17 02:12:50;;;;;;;3.05;1.20;;;;;;;9.22;100.00;96881.97;1034111;28;20030;-66
2024/02/17 02:13:21;;;;;;;2.22;2.05;;;;;;;9.24;100.00;96879.94;1034675;28;20029;-66
2024/02/17 02:13:52;;;;;;;1.05;0.95;;;;;;;9.25;100.00;96878.91;1036519;28;20044;-66
2024/02/17 02:14:23;;;;;;;5.78;2.13;;;;;;;9.27;100.00;96874.25;1039089;28;20021;-66
2024/02/17 02:15:03;;;;;;;1.80;1.60;;;;;;;9.27;100.00;96879.50;1034594;28;20029;-67
2024/02/17 02:15:39;;;;;;;2.55;1.83;;;;;;;9.27;100.00;96868.22;1036177;28;20021;-67
2024/02/17 02:16:10;;;;;;;4.32;2.70;;;;;;;9.26;100.00;96872.66;1030498;28;20054;-67
2024/02/17 02:16:40;;;;;;;5.30;3.50;;;;;;;9.27;100.00;96876.88;1035854;28;20760;-66
2024/02/17 02:17:11;;;;;;;3.50;2.20;;;;;;;9.27;100.00;96868.22;1037541;28;20148;-67
2024/02/17 02:17:41;;;;;;;4.50;2.28;;;;;;;9.26;100.00;96877.13;1031459;28;20030;-67
2024/02/17 02:18:12;;;;;;;4.65;3.53;;;;;;;9.26;100.00;96869.25;1030847;28;20038;-67
2024/02/17 02:18:42;;;;;;;3.50;2.58;;;;;;;9.25;100.00;96873.69;1030391;28;20050;-67
2024/02/17 02:19:14;;;;;;;3.95;2.58;;;;;;;9.24;100.00;96874.72;1026510;28;20026;-67
2024/02/17 02:19:44;;;;;;;6.82;3.83;;;;;;;9.24;100.00;96871.28;1026203;28;20576;-67
2024/02/17 02:20:15;;;;;;;10.73;4.47;;;;;;;9.20;100.00;96868.34;1034717;28;20053;-67
2024/02/17 02:20:46;;;;;;;7.43;3.67;;;;;;;9.23;100.00;96877.56;1034252;28;20040;-67
2024/02/17 02:21:17;;;;;;;11.73;3.50;;;;;;;9.25;100.00;96875.50;1030829;28;20026;-69
2024/02/17 02:21:47;;;;;;;6.97;2.80;;;;;;;9.27;100.00;96876.09;1033847;28;20042;-66
2024/02/17 02:22:17;;;;;;;6.68;2.92;;;;;;;9.29;100.00;96881.88;1032816;28;20029;-67
2024/02/17 02:22:48;;;;;;;4.00;2.13;;;;;;;9.26;100.00;96872.66;1033616;28;20029;-67
2024/02/17 02:23:18;;;;;;;6.43;2.70;;;;;;;9.28;100.00;96875.84;1034899;28;20052;-67
2024/02/17 02:23:49;;;;;;;4.07;2.38;;;;;;;9.25;100.00;96880.75;1039000;28;20560;-67
2024/02/17 02:24:19;;;;;;;6.22;3.22;;;;;;;9.26;100.00;96882.34;1038817;28;20148;-67
2024/02/17 02:24:50;;;;;;;9.07;3.33;;;;;;;9.26;100.00;96880.53;1034846;28;20056;-68